createdAt,value
2023-03-05T00:02:09.402Z,8.50
2023-03-05T00:04:37.296Z,7.50
2023-03-05T00:07:05.596Z,9.80
2023-03-05T00:09:35.603Z,7.80
2023-03-05T00:12:04.072Z,9.00
2023-03-05T00:14:31.877Z,7.00
2023-03-05T00:16:59.539Z,8.40
2023-03-05T00:19:27.243Z,6.90
2023-03-05T00:21:55.385Z,10.60
2023-03-05T00:24:23.152Z,9.70
2023-03-05T00:26:50.881Z,9.80
2023-03-05T00:29:21.867Z,9.90
2023-03-05T00:31:50.176Z,9.80
2023-03-05T00:34:19.032Z,11.60
2023-03-05T00:36:52.169Z,9.40
2023-03-05T00:39:21.415Z,13.60
2023-03-05T00:41:50.247Z,7.00
2023-03-05T00:44:18.256Z,13.30
2023-03-05T00:46:46.030Z,7.70
2023-03-05T00:49:13.868Z,7.40
2023-03-05T00:51:42.263Z,6.40
2023-03-05T00:54:10.088Z,7.20
2023-03-05T00:56:37.865Z,6.10
2023-03-05T00:59:05.650Z,5.70
2023-03-05T01:01:33.389Z,6.10
2023-03-05T01:04:01.549Z,5.20
2023-03-05T01:06:29.622Z,6.50
2023-03-05T01:08:57.669Z,5.80
2023-03-05T01:11:26.105Z,4.30
2023-03-05T01:13:53.937Z,4.30
2023-03-05T01:16:21.720Z,5.70
2023-03-05T01:18:49.451Z,6.10
2023-03-05T01:21:17.151Z,5.40
2023-03-05T01:23:44.909Z,4.90
2023-03-05T01:26:13.525Z,5.50
2023-03-05T01:28:41.631Z,6.60
2023-03-05T01:31:10.992Z,7.30
2023-03-05T01:33:39.743Z,5.10
2023-03-05T01:36:16.994Z,5.50
2023-03-05T01:38:47.758Z,7.00
2023-03-05T01:41:16.395Z,6.10
2023-03-05T01:43:44.951Z,6.80
2023-03-05T01:46:34.831Z,11.90
2023-03-05T01:49:08.558Z,8.30
2023-03-05T01:51:50.630Z,9.80
2023-03-05T01:54:22.304Z,9.80
2023-03-05T01:56:53.906Z,7.40
2023-03-05T01:59:23.841Z,8.70
2023-03-05T02:04:23.878Z,7.70
2023-03-05T02:06:51.582Z,8.90
2023-03-05T02:09:23.508Z,10.60
2023-03-05T02:11:51.959Z,13.20
2023-03-05T02:14:20.606Z,10.80
2023-03-05T02:16:48.362Z,10.80
2023-03-05T02:19:16.499Z,9.80
2023-03-05T02:24:56.015Z,7.50
2023-03-05T02:27:34.849Z,11.10
2023-03-05T02:30:03.346Z,7.70
2023-03-05T02:32:31.096Z,6.60
2023-03-05T02:34:59.168Z,8.00
2023-03-05T02:37:28.082Z,8.90
2023-03-05T02:39:55.832Z,8.10
2023-03-05T02:42:23.919Z,8.40
2023-03-05T02:44:52.088Z,5.40
2023-03-05T02:47:19.868Z,5.40
2023-03-05T02:49:47.814Z,5.00
2023-03-05T02:52:15.582Z,6.60
2023-03-05T02:54:43.508Z,6.10
2023-03-05T02:57:11.585Z,5.60
2023-03-05T02:59:39.373Z,4.40
2023-03-05T03:02:07.729Z,4.70
2023-03-05T03:04:35.433Z,5.20
2023-03-05T03:07:03.314Z,7.20
2023-03-05T03:09:31.010Z,4.70
2023-03-05T03:11:58.819Z,7.10
2023-03-05T03:14:26.728Z,6.00
2023-03-05T03:16:54.422Z,8.10
2023-03-05T03:19:22.109Z,8.60
2023-03-05T03:21:50.338Z,6.50
2023-03-05T03:24:18.030Z,7.50
2023-03-05T03:26:46.478Z,7.40
2023-03-05T03:29:14.158Z,8.10
2023-03-05T03:31:41.897Z,7.60
2023-03-05T03:34:09.642Z,8.30
2023-03-05T03:36:37.420Z,10.80
2023-03-05T03:39:06.006Z,8.00
2023-03-05T03:41:33.757Z,9.90
2023-03-05T03:44:03.340Z,11.60
2023-03-05T03:46:31.252Z,12.20
2023-03-05T03:48:59.078Z,11.20
2023-03-05T03:51:26.857Z,8.30
2023-03-05T03:53:55.059Z,8.70
2023-03-05T03:56:23.024Z,8.00
2023-03-05T03:58:52.427Z,7.40
2023-03-05T04:01:21.310Z,7.40
2023-03-05T04:03:49.096Z,5.00
2023-03-05T04:06:16.809Z,9.60
2023-03-05T04:08:44.510Z,5.90
2023-03-05T04:11:12.237Z,9.40
2023-03-05T04:13:39.904Z,4.80
2023-03-05T04:16:07.918Z,5.60
2023-03-05T04:18:35.716Z,6.80
2023-03-05T04:21:03.629Z,5.90
2023-03-05T04:36:50.163Z,3.50
2023-03-05T04:39:20.857Z,6.30
2023-03-05T04:41:48.723Z,4.60
2023-03-05T04:44:17.754Z,6.40
2023-03-05T04:46:45.589Z,4.40
2023-03-05T04:49:13.333Z,5.10
2023-03-05T04:51:41.310Z,6.60
2023-03-05T04:54:08.997Z,4.00
2023-03-05T04:56:36.636Z,3.90
2023-03-05T04:59:04.289Z,6.00
2023-03-05T05:01:32.968Z,1.80
2023-03-05T05:04:01.256Z,3.50
2023-03-05T05:06:29.013Z,4.90
2023-03-05T05:08:56.695Z,3.70
2023-03-05T05:11:24.424Z,3.70
2023-03-05T05:13:52.167Z,4.00
2023-03-05T05:16:20.287Z,3.00
2023-03-05T05:18:48.117Z,3.80
2023-03-05T05:21:16.126Z,3.40
2023-03-05T05:23:44.612Z,3.90
2023-03-05T05:26:15.763Z,3.20
2023-03-05T05:28:44.466Z,3.00
2023-03-05T05:31:14.885Z,3.30
2023-03-05T05:33:43.746Z,2.70
2023-03-05T05:36:14.875Z,1.80
2023-03-05T05:38:42.837Z,4.40
2023-03-05T05:41:13.477Z,5.60
2023-03-05T05:43:41.564Z,3.40
2023-03-05T05:46:13.736Z,5.20
2023-03-05T05:48:42.048Z,2.70
2023-03-05T05:51:12.984Z,4.40
2023-03-05T05:53:41.991Z,6.40
2023-03-05T05:56:11.464Z,2.50
2023-03-05T05:58:41.303Z,4.20
2023-03-05T06:03:48.141Z,5.50
2023-03-05T06:06:18.537Z,4.60
2023-03-05T06:08:46.984Z,4.80
2023-03-05T06:11:16.326Z,2.80
2023-03-05T06:13:46.208Z,4.50
2023-03-05T06:16:17.810Z,5.40
2023-03-05T06:18:45.584Z,6.70
2023-03-05T06:21:16.259Z,5.20
2023-03-05T06:34:53.459Z,10.60
2023-03-05T06:37:21.181Z,4.50
2023-03-05T06:39:48.902Z,5.00
2023-03-05T06:42:19.498Z,4.30
2023-03-05T06:44:48.278Z,4.40
2023-03-05T06:47:17.594Z,3.50
2023-03-05T06:49:45.757Z,6.40
2023-03-05T06:52:13.413Z,3.40
2023-03-05T06:54:41.082Z,4.90
2023-03-05T06:57:10.613Z,7.30
2023-03-05T06:59:38.289Z,5.50
2023-03-05T07:02:06.245Z,6.60
2023-03-05T07:04:33.947Z,5.40
2023-03-05T07:07:01.687Z,3.40
2023-03-05T07:09:30.808Z,4.40
2023-03-05T07:11:58.530Z,5.80
2023-03-05T07:14:26.228Z,4.60
2023-03-05T07:16:53.897Z,5.90
2023-03-05T07:19:21.586Z,5.00
2023-03-05T07:21:49.414Z,7.00
2023-03-05T07:24:17.143Z,5.90
2023-03-05T07:26:45.521Z,6.80
2023-03-05T07:29:14.282Z,5.40
2023-03-05T07:31:42.005Z,6.50
2023-03-05T07:34:10.248Z,5.90
2023-03-05T07:36:38.207Z,5.90
2023-03-05T07:39:06.502Z,5.20
2023-03-05T07:41:34.468Z,5.00
2023-03-05T07:44:02.549Z,4.00
2023-03-05T07:46:33.382Z,5.60
2023-03-05T07:49:01.265Z,7.60
2023-03-05T07:51:30.098Z,4.20
2023-03-05T07:53:58.993Z,4.80
2023-03-05T07:56:32.033Z,4.20
2023-03-05T07:59:00.095Z,5.90
2023-03-05T08:01:29.362Z,8.50
2023-03-05T08:03:57.976Z,5.60
2023-03-05T08:06:25.939Z,6.00
2023-03-05T08:08:54.651Z,5.00
2023-03-05T08:11:22.439Z,5.90
2023-03-05T08:13:50.432Z,5.50
2023-03-05T08:16:20.566Z,6.70
2023-03-05T08:18:48.841Z,7.60
2023-03-05T08:21:36.374Z,3.90
2023-03-05T08:24:07.526Z,9.90
2023-03-05T08:26:41.217Z,8.30
2023-03-05T08:29:10.841Z,6.60
2023-03-05T08:31:39.366Z,7.10
2023-03-05T08:34:07.733Z,4.10
2023-03-05T08:36:35.520Z,5.90
2023-03-05T08:39:03.700Z,7.80
2023-03-05T08:41:31.378Z,5.30
2023-03-05T08:43:59.161Z,6.10
2023-03-05T08:46:26.863Z,4.90
2023-03-05T08:48:54.560Z,8.00
2023-03-05T08:51:27.526Z,4.80
2023-03-05T08:53:56.394Z,5.60
2023-03-05T08:56:26.244Z,7.60
2023-03-05T09:01:22.667Z,2.80
2023-03-05T09:03:50.593Z,8.70
2023-03-05T09:06:18.462Z,7.20
2023-03-05T09:08:46.306Z,7.80
2023-03-05T09:11:14.338Z,6.10
2023-03-05T09:13:42.388Z,10.40
2023-03-05T09:16:16.569Z,6.70
2023-03-05T09:18:45.093Z,12.20
2023-03-05T09:21:17.480Z,8.00
2023-03-05T09:23:47.160Z,7.00
2023-03-05T09:28:47.797Z,8.20
2023-03-05T09:31:16.231Z,8.80
2023-03-05T09:33:43.985Z,8.60
2023-03-05T09:36:23.921Z,8.80
2023-03-05T09:38:52.402Z,7.80
2023-03-05T09:42:04.375Z,7.40
2023-03-05T09:44:43.415Z,7.40
2023-03-05T09:47:35.643Z,8.30
2023-03-05T09:50:24.936Z,7.40
2023-03-05T09:53:01.662Z,11.30
2023-03-05T09:55:40.320Z,7.80
2023-03-05T09:58:29.501Z,6.40
2023-03-05T10:01:03.438Z,7.50
2023-03-05T10:03:46.403Z,10.70
2023-03-05T10:06:32.667Z,7.30
2023-03-05T10:09:36.574Z,7.50
2023-03-05T10:12:16.546Z,8.40
2023-03-05T10:14:44.380Z,8.60
2023-03-05T10:17:50.885Z,8.90
2023-03-05T10:20:30.969Z,9.30
2023-03-05T10:23:25.898Z,6.30
2023-03-05T10:26:12.033Z,8.40
2023-03-05T10:28:53.753Z,9.10
2023-03-05T10:31:39.945Z,6.70
2023-03-05T10:34:25.453Z,6.10
2023-03-05T10:37:17.635Z,4.10
2023-03-05T10:40:10.972Z,8.80
2023-03-05T10:43:04.569Z,8.00
2023-03-05T10:45:40.160Z,9.00
2023-03-05T10:48:32.491Z,8.90
2023-03-05T10:51:14.550Z,6.50
2023-03-05T10:54:01.684Z,5.00
2023-03-05T10:56:31.870Z,4.20
2023-03-05T10:58:59.603Z,4.30
2023-03-05T11:01:31.567Z,6.40
2023-03-05T11:04:22.716Z,3.00
2023-03-05T11:06:50.548Z,4.30
2023-03-05T11:09:21.056Z,5.70
2023-03-05T11:12:14.195Z,7.10
2023-03-05T11:15:14.355Z,4.60
2023-03-05T11:17:44.636Z,5.40
2023-03-05T11:20:27.359Z,7.20
2023-03-05T11:23:10.711Z,3.80
2023-03-05T11:26:03.278Z,6.30
2023-03-05T11:28:55.428Z,2.70
2023-03-05T11:31:29.281Z,4.80
2023-03-05T11:34:01.761Z,3.50
2023-03-05T11:36:33.881Z,7.40
2023-03-05T11:39:07.790Z,5.90
2023-03-05T11:41:50.190Z,5.90
2023-03-05T11:44:23.506Z,5.10
2023-03-05T11:46:56.426Z,9.80
2023-03-05T11:49:27.914Z,4.60
2023-03-05T11:52:14.551Z,8.00
2023-03-05T11:54:59.097Z,8.40
2023-03-05T11:57:27.228Z,5.20
2023-03-05T11:59:58.662Z,5.40
2023-03-05T12:02:27.983Z,9.30
2023-03-05T12:04:56.288Z,6.70
2023-03-05T12:07:36.046Z,6.30
2023-03-05T12:10:04.296Z,7.40
2023-03-05T12:12:46.358Z,8.90
2023-03-05T12:15:39.139Z,9.30
2023-03-05T12:18:09.775Z,8.60
2023-03-05T12:21:00.923Z,7.70
2023-03-05T12:23:44.315Z,12.80
2023-03-05T12:26:12.071Z,20.60
2023-03-05T12:28:43.000Z,17.80
2023-03-05T12:31:27.754Z,8.20
2023-03-05T12:33:55.486Z,8.50
2023-03-05T12:36:23.087Z,7.30
2023-03-05T12:38:53.747Z,12.60
2023-03-05T12:41:25.435Z,24.90
2023-03-05T12:44:06.745Z,23.40
2023-03-05T12:46:39.848Z,13.50
2023-03-05T12:49:27.932Z,10.90
2023-03-05T12:51:59.180Z,28.60
2023-03-05T12:54:30.927Z,6.10
2023-03-05T12:57:06.574Z,8.40
2023-03-05T12:59:48.426Z,7.70
2023-03-05T13:02:27.106Z,7.80
2023-03-05T13:05:00.688Z,7.50
2023-03-05T13:07:28.501Z,9.40
2023-03-05T13:09:58.435Z,7.20
2023-03-05T13:12:30.470Z,9.00
2023-03-05T13:15:01.899Z,6.90
2023-03-05T13:17:32.572Z,5.70
2023-03-05T13:20:06.154Z,4.90
2023-03-05T13:22:33.887Z,3.00
2023-03-05T13:25:11.005Z,4.00
2023-03-05T13:27:38.841Z,3.80
2023-03-05T13:30:19.685Z,7.00
2023-03-05T13:32:51.113Z,3.80
2023-03-05T13:35:20.932Z,7.40
2023-03-05T13:37:49.559Z,4.80
2023-03-05T13:40:29.878Z,4.90
2023-03-05T13:43:12.239Z,3.90
2023-03-05T13:45:40.179Z,4.60
2023-03-05T13:48:19.872Z,4.50
2023-03-05T13:50:55.578Z,4.40
2023-03-05T13:53:29.121Z,4.90
2023-03-05T13:56:08.729Z,4.00
2023-03-05T13:58:55.887Z,4.40
2023-03-05T14:01:26.772Z,4.00
2023-03-05T14:04:03.413Z,4.10
2023-03-05T14:06:31.503Z,5.70
2023-03-05T14:09:05.799Z,5.30
2023-03-05T14:11:34.601Z,8.30
2023-03-05T14:14:15.667Z,6.60
2023-03-05T14:16:43.664Z,9.20
2023-03-05T14:19:31.666Z,6.40
2023-03-05T14:21:59.456Z,6.80
2023-03-05T14:24:31.149Z,6.50
2023-03-05T14:27:13.317Z,5.10
2023-03-05T14:32:29.846Z,6.80
2023-03-05T14:34:59.979Z,6.20
2023-03-05T14:37:42.840Z,5.50
2023-03-05T14:40:13.655Z,8.50
2023-03-05T14:42:51.642Z,6.30
2023-03-05T14:45:22.749Z,10.00
2023-03-05T14:47:52.251Z,5.90
2023-03-05T14:50:25.813Z,9.40
2023-03-05T14:52:58.021Z,9.30
2023-03-05T14:55:30.999Z,9.40
2023-03-05T14:58:32.302Z,11.10
2023-03-05T15:01:00.133Z,7.60
2023-03-05T15:03:28.113Z,10.30
2023-03-05T15:05:58.672Z,5.90
2023-03-05T15:08:29.487Z,7.20
2023-03-05T15:10:58.300Z,7.00
2023-03-05T15:13:26.239Z,7.40
2023-03-05T15:15:54.572Z,6.70
2023-03-05T15:18:22.783Z,6.20
2023-03-05T15:20:53.931Z,6.80
2023-03-05T15:23:21.705Z,6.60
2023-03-05T15:25:50.362Z,6.40
2023-03-05T15:28:18.180Z,10.50
2023-03-05T15:30:47.539Z,5.20
2023-03-05T15:33:16.702Z,10.00
2023-03-05T15:35:44.954Z,7.50
2023-03-05T15:38:12.734Z,9.60
2023-03-05T15:40:40.527Z,7.90
2023-03-05T15:43:09.282Z,7.90
2023-03-05T15:45:37.346Z,9.30
2023-03-05T15:48:05.788Z,8.70
2023-03-05T15:50:33.808Z,6.70
2023-03-05T15:53:01.526Z,8.50
2023-03-05T15:55:29.397Z,7.40
2023-03-05T15:57:57.194Z,6.60
2023-03-05T16:00:29.417Z,8.80
2023-03-05T16:02:57.324Z,8.90
2023-03-05T16:05:25.176Z,3.90
2023-03-05T16:07:54.360Z,9.50
2023-03-05T16:10:27.626Z,7.70
2023-03-05T16:12:59.617Z,6.90
2023-03-05T16:15:28.249Z,8.70
2023-03-05T16:17:56.959Z,6.20
2023-03-05T16:20:25.031Z,5.60
2023-03-05T16:22:52.862Z,9.80
2023-03-05T16:25:22.115Z,4.60
2023-03-05T16:27:49.933Z,6.60
2023-03-05T16:30:18.060Z,4.50
2023-03-05T16:32:45.930Z,8.80
2023-03-05T16:35:13.773Z,12.20
2023-03-05T16:37:42.097Z,12.30
2023-03-05T16:40:12.605Z,5.60
2023-03-05T16:42:40.768Z,6.20
2023-03-05T16:45:09.998Z,11.00
2023-03-05T16:47:38.048Z,10.40
2023-03-05T16:50:07.310Z,8.70
2023-03-05T16:52:35.761Z,8.90
2023-03-05T16:55:06.583Z,9.10
2023-03-05T16:57:34.612Z,11.00
2023-03-05T17:00:04.242Z,12.90
2023-03-05T17:05:00.666Z,9.30
2023-03-05T17:07:28.457Z,14.30
2023-03-05T17:09:56.695Z,12.80
2023-03-05T17:12:24.418Z,14.50
2023-03-05T17:14:52.175Z,14.00
2023-03-05T17:17:20.128Z,13.80
2023-03-05T17:19:48.380Z,14.00
2023-03-05T17:22:16.636Z,14.90
2023-03-05T17:24:46.757Z,15.60
2023-03-05T17:27:18.577Z,14.40
2023-03-05T17:29:46.274Z,15.60
2023-03-05T17:32:14.162Z,14.60
2023-03-05T17:34:42.033Z,15.00
2023-03-05T17:37:09.872Z,14.70
2023-03-05T17:39:38.820Z,16.80
2023-03-05T17:42:06.618Z,13.10
2023-03-05T17:44:34.416Z,14.60
2023-03-05T17:47:02.179Z,14.10
2023-03-05T17:49:29.999Z,17.10
2023-03-05T17:51:57.918Z,18.60
2023-03-05T17:54:26.090Z,18.60
2023-03-05T17:56:57.712Z,19.80
2023-03-05T17:59:25.753Z,17.50
2023-03-05T18:01:53.640Z,18.00
2023-03-05T18:04:21.721Z,18.00
2023-03-05T18:06:49.453Z,20.60
2023-03-05T18:09:17.631Z,21.60
2023-03-05T18:11:45.495Z,19.30
2023-03-05T18:14:15.766Z,20.50
2023-03-05T18:16:45.096Z,20.10
2023-03-05T18:19:13.276Z,16.70
2023-03-05T18:21:41.787Z,12.30
2023-03-05T18:24:10.526Z,17.90
2023-03-05T18:26:38.873Z,16.50
2023-03-05T18:29:06.774Z,18.60
2023-03-05T18:31:34.849Z,14.30
2023-03-05T18:34:03.008Z,18.30
2023-03-05T18:36:30.825Z,17.10
2023-03-05T18:38:58.875Z,15.70
2023-03-05T18:41:28.113Z,20.80
2023-03-05T18:43:56.155Z,22.90
2023-03-05T18:46:24.213Z,21.00
2023-03-05T18:48:52.041Z,17.70
2023-03-05T18:51:21.839Z,18.30
2023-03-05T18:53:51.841Z,16.30
2023-03-05T18:56:19.599Z,15.00
2023-03-05T18:58:47.927Z,16.80
2023-03-05T19:01:17.522Z,24.30
2023-03-05T19:03:46.578Z,20.60
2023-03-05T19:06:14.667Z,23.20
2023-03-05T19:08:42.609Z,24.20
2023-03-05T19:11:19.732Z,24.60
2023-03-05T19:13:50.192Z,24.40
2023-03-05T19:16:21.291Z,27.50
2023-03-05T19:19:24.283Z,27.70
2023-03-05T19:21:55.002Z,26.20
2023-03-05T19:24:25.144Z,27.10
2023-03-05T19:26:55.727Z,26.70
2023-03-05T19:29:24.685Z,28.60
2023-03-05T19:31:53.544Z,26.20
2023-03-05T19:34:21.735Z,24.30
2023-03-05T19:36:49.651Z,19.30
2023-03-05T19:39:17.382Z,21.70
2023-03-05T19:41:45.301Z,18.30
2023-03-05T19:44:13.434Z,20.00
2023-03-05T19:46:41.972Z,18.30
2023-03-05T19:49:10.681Z,21.20
2023-03-05T19:51:40.273Z,15.00
2023-03-05T19:54:09.550Z,19.70
2023-03-05T19:56:39.017Z,20.50
2023-03-05T19:59:07.084Z,23.50
2023-03-05T20:01:35.218Z,21.20
2023-03-05T20:04:05.062Z,17.40
2023-03-05T20:06:33.581Z,20.30
2023-03-05T20:09:01.434Z,20.00
2023-03-05T20:11:29.451Z,23.70
2023-03-05T20:13:57.568Z,26.70
2023-03-05T20:16:29.747Z,27.00
2023-03-05T20:18:58.990Z,24.80
2023-03-05T20:21:30.372Z,24.90
2023-03-05T20:24:01.474Z,24.70
2023-03-05T20:26:30.198Z,21.00
2023-03-05T20:28:58.097Z,23.90
2023-03-05T20:31:27.018Z,21.10
2023-03-05T20:33:56.294Z,22.30
2023-03-05T20:36:24.258Z,19.20
2023-03-05T20:38:51.974Z,21.70
2023-03-05T20:41:23.378Z,22.00
2023-03-05T20:43:52.388Z,20.10
2023-03-05T20:46:31.875Z,20.80
2023-03-05T20:49:02.207Z,17.50
2023-03-05T20:51:33.855Z,17.30
2023-03-05T20:54:13.142Z,19.10
2023-03-05T20:56:40.916Z,18.50
2023-03-05T20:59:09.135Z,20.40
2023-03-05T21:01:39.792Z,20.20
2023-03-05T21:04:08.378Z,16.20
2023-03-05T21:06:37.045Z,17.90
2023-03-05T21:09:05.223Z,14.50
2023-03-05T21:11:35.713Z,13.70
2023-03-05T21:14:03.419Z,16.10
2023-03-05T21:27:01.559Z,15.30
2023-03-05T21:29:29.316Z,16.30
2023-03-05T21:31:57.169Z,19.80
2023-03-05T21:34:24.883Z,21.20
2023-03-05T21:36:52.711Z,16.90
2023-03-05T21:39:20.384Z,15.80
2023-03-05T21:41:48.312Z,21.20
2023-03-05T21:44:17.713Z,17.30
2023-03-05T21:46:45.535Z,18.50
2023-03-05T21:49:13.480Z,16.40
2023-03-05T21:52:11.843Z,19.10
2023-03-05T21:54:40.486Z,18.40
2023-03-05T21:57:10.602Z,21.00
2023-03-05T21:59:42.913Z,21.90
2023-03-05T22:02:16.532Z,20.10
2023-03-05T22:04:46.138Z,23.20
2023-03-05T22:07:16.098Z,19.20
2023-03-05T22:09:44.568Z,21.90
2023-03-05T22:12:58.695Z,22.20
2023-03-05T22:15:29.321Z,18.00
2023-03-05T22:17:57.234Z,19.50
2023-03-05T22:20:25.183Z,19.60
2023-03-05T22:22:52.885Z,25.20
2023-03-05T22:25:20.569Z,21.80
2023-03-05T22:27:48.485Z,18.80
2023-03-05T22:30:16.488Z,19.30
2023-03-05T22:32:44.156Z,22.60
2023-03-05T22:35:14.198Z,19.50
2023-03-05T22:37:43.443Z,21.80
2023-03-05T22:40:17.391Z,23.40
2023-03-05T22:42:46.155Z,22.50
2023-03-05T22:45:17.034Z,20.10
2023-03-05T22:47:51.536Z,21.60
2023-03-05T22:50:19.510Z,22.20
2023-03-05T22:52:47.390Z,20.80
2023-03-05T22:55:16.302Z,20.20
2023-03-05T22:57:45.087Z,20.20
2023-03-05T23:00:17.289Z,18.40
2023-03-05T23:02:45.252Z,24.30
2023-03-05T23:05:13.113Z,21.80
2023-03-05T23:07:42.556Z,23.40
2023-03-05T23:10:13.081Z,23.90
2023-03-05T23:12:46.105Z,22.80
2023-03-05T23:15:19.421Z,21.20
2023-03-05T23:17:47.205Z,20.50
2023-03-05T23:20:17.413Z,21.40
2023-03-05T23:22:45.398Z,18.90
2023-03-05T23:25:14.944Z,21.00
2023-03-05T23:27:43.358Z,22.90
2023-03-05T23:30:22.101Z,16.00
2023-03-05T23:32:53.708Z,20.00
2023-03-05T23:35:30.479Z,21.10
2023-03-05T23:38:00.513Z,18.60
2023-03-05T23:43:00.969Z,17.80
2023-03-05T23:45:29.892Z,21.30
2023-03-05T23:47:57.596Z,21.20
2023-03-05T23:50:28.628Z,18.50
2023-03-05T23:52:56.879Z,18.70
2023-03-05T23:55:27.910Z,25.10
2023-03-05T23:57:56.229Z,25.00
